createdAt,value
2023-04-24T00:03:50.822Z,23.1
2023-04-24T00:09:42.905Z,22.8
2023-04-24T00:15:34.819Z,22.6
2023-04-24T00:21:26.120Z,22.5
2023-04-24T00:27:17.332Z,22.5
2023-04-24T00:33:08.543Z,22.3
2023-04-24T00:38:59.937Z,22.8
2023-04-24T00:44:51.027Z,23.1
2023-04-24T00:50:42.026Z,22.8
2023-04-24T00:56:18.025Z,22.7
2023-04-24T01:02:09.623Z,22.6
2023-04-24T01:08:02.225Z,22.5
2023-04-24T01:13:54.229Z,22.4
2023-04-24T01:19:46.041Z,23.1
2023-04-24T01:25:37.857Z,23.1
2023-04-24T01:31:29.580Z,22.8
2023-04-24T01:37:06.153Z,22.7
2023-04-24T01:42:57.471Z,22.6
2023-04-24T01:48:49.590Z,22.6
2023-04-24T01:54:40.825Z,22.6
2023-04-24T02:00:32.906Z,23.2
2023-04-24T02:06:26.275Z,23
2023-04-24T02:12:17.868Z,22.8
2023-04-24T02:18:09.263Z,22.7
2023-04-24T02:23:44.927Z,22.6
2023-04-24T02:29:35.900Z,22.6
2023-04-24T02:35:27.364Z,22.7
2023-04-24T02:41:19.069Z,23.3
2023-04-24T02:47:10.166Z,23
2023-04-24T02:53:02.177Z,22.8
2023-04-24T02:58:53.504Z,22.8
2023-04-24T03:04:47.083Z,22.6
2023-04-24T03:10:38.850Z,22.6
2023-04-24T03:16:30.869Z,22.9
2023-04-24T03:22:25.600Z,23.3
2023-04-24T03:28:16.895Z,23
2023-04-24T03:34:09.506Z,22.9
2023-04-24T03:39:45.621Z,22.8
2023-04-24T03:45:39.238Z,22.6
2023-04-24T03:51:32.989Z,22.6
2023-04-24T03:57:24.305Z,23.1
2023-04-24T04:03:16.602Z,23.3
2023-04-24T04:09:09.644Z,22.9
2023-04-24T04:15:00.643Z,22.8
2023-04-24T04:20:52.262Z,22.7
2023-04-24T04:26:43.968Z,22.6
2023-04-24T04:32:35.652Z,22.6
2023-04-24T04:38:27.630Z,23.1
2023-04-24T04:44:19.464Z,23.2
2023-04-24T04:50:11.341Z,22.9
2023-04-24T04:56:03.324Z,22.8
2023-04-24T05:01:43.197Z,22.6
2023-04-24T05:07:50.997Z,22.5
2023-04-24T05:14:00.928Z,22.4
2023-04-24T05:19:53.400Z,22.3
2023-04-24T05:25:44.170Z,22.1
2023-04-24T05:31:04.931Z,22.1
2023-04-24T05:36:57.166Z,22
2023-04-24T05:42:48.100Z,21.9
2023-04-24T05:48:24.414Z,21.8
2023-04-24T05:54:15.980Z,21.8
2023-04-24T06:00:07.323Z,21.7
2023-04-24T06:06:02.166Z,21.6
2023-04-24T06:11:24.171Z,21.6
2023-04-24T06:17:16.099Z,21.6
2023-04-24T06:23:07.602Z,21.5
2023-04-24T06:28:43.924Z,21.4
2023-04-24T06:34:43.995Z,21.4
2023-04-24T06:40:35.970Z,21.4
2023-04-24T06:46:12.159Z,21.4
2023-04-24T06:51:49.421Z,21.3
2023-04-24T06:57:40.607Z,21.3
2023-04-24T07:03:35.225Z,21.2
2023-04-24T07:09:27.815Z,21.2
2023-04-24T07:26:35.065Z,21.1
2023-04-24T07:32:12.300Z,21.1
2023-04-24T07:38:04.200Z,21
2023-04-24T07:43:55.903Z,21
2023-04-24T07:50:02.517Z,20.9
2023-04-24T07:55:57.001Z,20.9
2023-04-24T08:01:48.364Z,20.9
2023-04-24T08:07:44.542Z,20.9
2023-04-24T08:13:23.112Z,20.8
2023-04-24T08:19:15.364Z,20.8
2023-04-24T08:25:07.071Z,20.8
2023-04-24T08:31:00.963Z,20.8
2023-04-24T08:36:46.344Z,20.8
2023-04-24T08:42:22.964Z,20.8
2023-04-24T08:48:30.739Z,20.8
2023-04-24T08:54:22.897Z,20.7
2023-04-24T09:00:14.364Z,20.7
2023-04-24T09:05:54.073Z,20.7
2023-04-24T09:11:45.802Z,20.6
2023-04-24T09:17:37.435Z,20.6
2023-04-24T09:23:13.672Z,20.6
2023-04-24T09:29:06.404Z,20.5
2023-04-24T09:34:42.616Z,20.5
2023-04-24T09:40:18.687Z,20.5
2023-04-24T09:46:20.211Z,20.5
2023-04-24T09:52:15.164Z,20.4
2023-04-24T09:58:07.673Z,20.4
2023-04-24T10:04:00.796Z,20.4
2023-04-24T10:09:53.270Z,20.4
2023-04-24T10:15:45.564Z,20.4
2023-04-24T10:21:37.859Z,20.4
2023-04-24T10:27:28.973Z,20.4
2023-04-24T10:33:21.538Z,20.4
2023-04-24T10:39:13.139Z,20.4
2023-04-24T10:45:05.049Z,20.4
2023-04-24T10:50:57.155Z,20.4
2023-04-24T10:56:49.002Z,20.4
2023-04-24T11:02:41.743Z,20.4
2023-04-24T11:08:21.089Z,20.4
2023-04-24T11:13:57.789Z,20.3
2023-04-24T11:19:35.080Z,20.3
